Time;durP1;ratioP1;P1;durP2;ratioP2;P2;SDS_P1;SDS_P2;PMS_P1;PMS_P2;Temp;Humidity;BMP_temperature;BMP_pressure;BME280_temperature;BME280_humidity;BME280_pressure;Samples;Min_cycle;Max_cycle;Signal;HPM_P1;HPM_P2
2023/02/11 00:00:21;;;;;;;31.73;4.20;;;;;;;7.92;100.00;103480.22;5048611;28;20048;-64
2023/02/11 00:02:46;;;;;;;26.30;4.60;;;;;;;7.93;100.00;103485.50;5056397;28;20039;-61
2023/02/11 00:05:12;;;;;;;23.95;4.20;;;;;;;7.94;100.00;103478.47;5069631;28;20600;-64
2023/02/11 00:07:37;;;;;;;27.25;3.90;;;;;;;7.81;100.00;103475.63;5068936;28;20425;-60
2023/02/11 00:10:05;;;;;;;32.22;5.82;;;;;;;7.92;100.00;103475.81;5068085;28;20457;-63
2023/02/11 00:12:30;;;;;;;33.40;5.13;;;;;;;7.99;100.00;103474.22;5068717;28;20027;-64
2023/02/11 00:14:55;;;;;;;22.13;4.28;;;;;;;8.01;100.00;103480.38;5068091;28;20025;-63
2023/02/11 00:17:21;;;;;;;20.83;3.78;;;;;;;7.94;100.00;103474.13;5049425;28;20032;-60
2023/02/11 00:19:52;;;;;;;22.73;4.45;;;;;;;7.90;100.00;103474.03;5048824;28;20040;-62
2023/02/11 00:22:18;;;;;;;25.73;5.00;;;;;;;7.89;100.00;103474.88;5048731;28;20472;-63
2023/02/11 00:24:44;;;;;;;32.53;4.13;;;;;;;7.87;100.00;103468.72;5048649;28;20032;-63
2023/02/11 00:27:09;;;;;;;24.67;4.47;;;;;;;7.90;100.00;103467.03;5048172;28;20060;-60
2023/02/11 00:29:36;;;;;;;30.27;4.63;;;;;;;7.87;100.00;103450.34;5048727;28;20025;-64
2023/02/11 00:32:04;;;;;;;21.25;3.85;;;;;;;7.89;100.00;103465.25;5048641;28;20088;-62
2023/02/11 00:34:30;;;;;;;30.13;4.45;;;;;;;7.83;100.00;103452.03;5048760;28;20036;-64
2023/02/11 00:36:55;;;;;;;26.80;4.13;;;;;;;7.86;100.00;103445.94;5048545;28;20131;-64
2023/02/11 00:39:20;;;;;;;26.58;4.40;;;;;;;7.91;100.00;103436.41;5048717;28;20123;-64
2023/02/11 00:41:46;;;;;;;28.75;4.60;;;;;;;7.78;100.00;103437.91;5047361;28;20114;-64
2023/02/11 00:44:11;;;;;;;30.67;4.55;;;;;;;7.74;100.00;103449.22;5049413;28;20056;-62
2023/02/11 00:46:36;;;;;;;29.90;5.22;;;;;;;7.83;100.00;103438.91;5064837;28;20733;-63
2023/02/11 00:49:02;;;;;;;26.27;4.10;;;;;;;7.83;100.00;103450.28;5067772;28;20036;-65
2023/02/11 00:51:27;;;;;;;28.40;4.10;;;;;;;7.86;100.00;103456.44;5066590;28;20031;-63
2023/02/11 00:53:53;;;;;;;31.40;5.82;;;;;;;7.88;100.00;103457.34;5050040;28;20111;-67
2023/02/11 00:56:18;;;;;;;27.55;3.80;;;;;;;7.90;100.00;103455.66;5066883;28;20024;-65
2023/02/11 00:58:44;;;;;;;28.75;5.85;;;;;;;7.92;100.00;103448.69;5067969;28;20032;-65
2023/02/11 01:01:11;;;;;;;24.90;4.10;;;;;;;7.99;100.00;103455.84;5067738;28;20035;-63
2023/02/11 01:03:36;;;;;;;23.25;4.13;;;;;;;7.95;100.00;103456.63;5068372;28;20052;-64
2023/02/11 01:06:02;;;;;;;25.88;5.57;;;;;;;7.99;100.00;103465.44;5068447;28;20458;-66
2023/02/11 01:08:27;;;;;;;26.35;5.13;;;;;;;7.93;100.00;103466.22;5067772;28;20371;-64
2023/02/11 01:11:02;;;;;;;26.33;4.57;;;;;;;8.02;100.00;103461.16;5067622;28;20027;-63
2023/02/11 01:13:28;;;;;;;29.38;4.25;;;;;;;8.00;100.00;103461.97;5067880;28;20107;-65
2023/02/11 01:15:54;;;;;;;19.00;4.43;;;;;;;8.00;100.00;103460.22;5067499;28;20025;-63
2023/02/11 01:18:19;;;;;;;21.70;4.85;;;;;;;7.91;100.00;103449.53;5067554;28;20028;-64
2023/02/11 01:20:45;;;;;;;28.38;6.00;;;;;;;7.90;100.00;103450.41;5065824;28;20016;-63
2023/02/11 01:23:10;;;;;;;27.52;5.05;;;;;;;7.89;100.00;103448.63;5066465;28;21259;-66
2023/02/11 01:25:36;;;;;;;28.20;5.30;;;;;;;7.97;100.00;103452.28;5059800;28;20032;-63
2023/02/11 01:28:01;;;;;;;31.27;4.43;;;;;;;7.92;100.00;103438.19;5067767;28;20036;-63
2023/02/11 01:30:26;;;;;;;21.35;4.18;;;;;;;7.95;100.00;103448.75;5067349;28;20089;-62
2023/02/11 01:32:52;;;;;;;33.42;6.03;;;;;;;7.88;100.00;103438.97;5067256;28;20103;-61
2023/02/11 01:35:17;;;;;;;26.55;4.95;;;;;;;7.80;100.00;103423.97;5067962;28;20043;-62
2023/02/11 01:37:42;;;;;;;29.40;4.95;;;;;;;7.65;100.00;103413.19;5067357;28;20105;-65
2023/02/11 01:40:15;;;;;;;25.67;5.10;;;;;;;7.66;100.00;103417.56;5067153;28;20141;-65
2023/02/11 01:42:41;;;;;;;25.42;4.88;;;;;;;7.61;100.00;103416.59;5066453;28;20067;-64
2023/02/11 01:45:45;;;;;;;22.58;5.07;;;;;;;7.43;100.00;103429.34;5067374;28;20059;-63
2023/02/11 01:48:12;;;;;;;23.58;5.43;;;;;;;7.39;100.00;103431.88;5066189;28;20526;-65
2023/02/11 01:50:38;;;;;;;34.38;6.57;;;;;;;7.31;100.00;103434.31;5049123;28;20748;-67
2023/02/11 01:58:35;;;;;;;29.70;5.82;;;;;;;7.10;100.00;103446.13;5052235;28;20043;-61
2023/02/11 02:01:01;;;;;;;27.23;5.55;;;;;;;7.12;100.00;103435.66;5065432;28;20066;-63
2023/02/11 02:03:27;;;;;;;30.35;5.72;;;;;;;7.04;100.00;103436.38;5049123;28;20032;-65
2023/02/11 02:05:59;;;;;;;43.83;5.75;;;;;;;6.98;100.00;103433.59;5049504;28;20043;-62
2023/02/11 02:08:34;;;;;;;40.30;5.25;;;;;;;6.95;100.00;103436.16;5049245;28;20020;-64
2023/02/11 02:10:59;;;;;;;25.83;6.35;;;;;;;6.92;100.00;103429.13;5065513;28;20201;-60
2023/02/11 02:13:27;;;;;;;26.85;4.88;;;;;;;6.85;100.00;103428.94;5048974;28;20525;-65
2023/02/11 02:15:54;;;;;;;32.72;5.68;;;;;;;6.86;100.00;103422.88;5047715;28;20032;-63
2023/02/11 02:18:38;;;;;;;27.20;5.03;;;;;;;6.79;100.00;103419.19;5048316;28;20029;-61
2023/02/11 02:21:31;;;;;;;27.60;6.05;;;;;;;6.82;100.00;103409.69;5066879;28;20028;-65
2023/02/11 02:24:17;;;;;;;29.10;6.00;;;;;;;6.73;100.00;103419.94;5067134;28;20024;-59
2023/02/11 02:27:14;;;;;;;29.20;5.13;;;;;;;6.73;100.00;103424.28;5048084;28;20060;-63
2023/02/11 02:32:54;;;;;;;28.98;5.30;;;;;;;6.66;100.00;103449.47;5061034;23;20084;-63
2023/02/11 02:35:31;;;;;;;30.88;5.32;;;;;;;6.62;100.00;103455.47;5065912;28;20028;-65
2023/02/11 02:38:16;;;;;;;37.97;6.72;;;;;;;6.57;100.00;103450.13;5064945;28;20039;-60
2023/02/11 02:41:08;;;;;;;26.77;5.40;;;;;;;6.55;100.00;103447.47;5066343;28;20040;-66
2023/02/11 02:43:41;;;;;;;26.02;5.75;;;;;;;6.50;100.00;103443.84;5062292;28;20044;-66
2023/02/11 02:46:19;;;;;;;30.52;6.07;;;;;;;6.40;100.00;103437.47;5071433;28;20024;-64
2023/02/11 02:48:45;;;;;;;33.88;6.40;;;;;;;6.42;100.00;103440.16;5071129;28;21109;-66
2023/02/11 02:51:26;;;;;;;24.73;6.13;;;;;;;6.35;100.00;103444.31;5085769;28;20024;-65
2023/02/11 02:54:16;;;;;;;27.90;6.28;;;;;;;6.30;100.00;103438.09;5070840;28;20025;-59
2023/02/11 02:56:59;;;;;;;36.53;6.45;;;;;;;6.28;100.00;103432.81;5069576;28;20028;-64
2023/02/11 02:59:32;;;;;;;25.08;5.82;;;;;;;6.26;100.00;103431.88;5069643;28;20583;-65
2023/02/11 03:02:09;;;;;;;32.85;5.93;;;;;;;6.22;100.00;103432.66;5069499;28;20672;-64
2023/02/11 03:05:01;;;;;;;28.10;5.85;;;;;;;6.12;100.00;103435.88;5070572;28;21075;-65
2023/02/11 03:07:51;;;;;;;34.92;6.05;;;;;;;6.06;100.00;103436.59;5069485;28;20028;-66
2023/02/11 03:10:30;;;;;;;34.42;6.20;;;;;;;6.09;100.00;103431.44;5062555;28;20098;-55
2023/02/11 03:12:56;;;;;;;31.63;6.80;;;;;;;6.09;100.00;103420.09;5069525;28;20162;-65
2023/02/11 03:15:24;;;;;;;28.55;6.78;;;;;;;6.06;100.00;103421.75;5069850;28;20028;-60
2023/02/11 03:17:53;;;;;;;34.05;6.70;;;;;;;6.12;100.00;103430.63;5069793;28;20028;-63
2023/02/11 03:20:19;;;;;;;34.65;6.28;;;;;;;6.13;100.00;103437.63;5069092;28;20111;-65
2023/02/11 03:22:52;;;;;;;32.08;7.07;;;;;;;6.10;100.00;103434.94;5069353;28;20710;-64
2023/02/11 03:25:18;;;;;;;43.90;6.90;;;;;;;6.15;100.00;103431.63;5068588;28;20039;-66
2023/02/11 03:27:52;;;;;;;32.40;7.38;;;;;;;6.14;100.00;103435.06;5069969;28;20020;-66
2023/02/11 03:30:29;;;;;;;31.40;7.40;;;;;;;6.14;100.00;103429.81;5068967;28;20042;-66
2023/02/11 03:33:07;;;;;;;41.65;7.70;;;;;;;6.04;100.00;103420.84;5068922;28;20064;-65
2023/02/11 03:35:45;;;;;;;28.67;6.82;;;;;;;6.10;100.00;103409.66;5068571;28;20414;-65
2023/02/11 03:38:15;;;;;;;32.50;7.38;;;;;;;6.17;100.00;103408.09;5070045;28;20486;-64
2023/02/11 03:40:42;;;;;;;34.33;8.55;;;;;;;6.19;100.00;103411.63;5068117;28;20028;-66
2023/02/11 03:43:24;;;;;;;31.17;7.63;;;;;;;6.24;100.00;103412.66;5054019;28;20032;-60
2023/02/11 03:45:50;;;;;;;30.65;8.07;;;;;;;6.26;100.00;103418.78;5033681;28;20071;-65
2023/02/11 03:48:19;;;;;;;43.63;10.13;;;;;;;6.25;100.00;103422.25;5067836;28;20028;-64
2023/02/11 03:50:45;;;;;;;31.02;8.63;;;;;;;6.25;100.00;103417.03;5067311;28;20045;-65
2023/02/11 03:53:12;;;;;;;48.70;9.18;;;;;;;6.26;100.00;103404.81;5068374;28;20031;-59
2023/02/11 03:55:39;;;;;;;35.67;8.23;;;;;;;6.26;100.00;103407.44;5068747;28;20020;-64
2023/02/11 03:58:04;;;;;;;47.83;8.98;;;;;;;6.27;100.00;103399.63;5068691;28;20382;-64
2023/02/11 04:00:31;;;;;;;32.40;9.38;;;;;;;6.29;100.00;103403.16;5069400;28;20036;-65
2023/02/11 04:02:57;;;;;;;35.03;9.48;;;;;;;6.35;100.00;103401.56;5069502;28;20359;-64
2023/02/11 04:05:22;;;;;;;31.38;8.88;;;;;;;6.36;100.00;103401.59;5069450;28;20081;-60
2023/02/11 04:07:47;;;;;;;36.53;8.98;;;;;;;6.40;100.00;103399.91;5069872;28;20553;-66
2023/02/11 04:10:13;;;;;;;39.10;10.35;;;;;;;6.43;100.00;103394.75;5068942;28;20028;-57
2023/02/11 04:12:38;;;;;;;41.42;9.82;;;;;;;6.38;100.00;103406.88;5067695;28;20032;-61
2023/02/11 04:15:04;;;;;;;35.28;10.00;;;;;;;6.51;100.00;103414.19;5069700;28;20111;-65
2023/02/11 04:17:29;;;;;;;37.42;10.52;;;;;;;6.52;100.00;103415.94;5068769;28;20167;-65
2023/02/11 04:19:55;;;;;;;32.50;9.88;;;;;;;6.60;100.00;103413.53;5068545;28;20021;-63
2023/02/11 04:22:20;;;;;;;48.45;11.75;;;;;;;6.66;100.00;103408.44;5069734;28;20042;-65
2023/02/11 04:24:45;;;;;;;38.03;10.18;;;;;;;6.65;100.00;103405.78;5067917;28;20031;-65
2023/02/11 04:27:11;;;;;;;34.95;9.07;;;;;;;6.64;100.00;103401.38;5068524;28;20034;-66
2023/02/11 04:29:36;;;;;;;36.90;10.57;;;;;;;6.59;100.00;103403.88;5068562;28;20112;-64
2023/02/11 04:32:02;;;;;;;32.60;9.88;;;;;;;6.57;100.00;103403.84;5069017;28;20548;-65
2023/02/11 04:34:27;;;;;;;42.88;10.88;;;;;;;6.53;100.00;103409.84;5068377;28;20048;-65
2023/02/11 04:36:52;;;;;;;38.75;11.52;;;;;;;6.53;100.00;103406.38;5068235;28;20036;-60
2023/02/11 04:39:18;;;;;;;32.60;10.70;;;;;;;6.54;100.00;103409.00;5068633;28;20540;-65
2023/02/11 04:41:43;;;;;;;41.42;11.05;;;;;;;6.56;100.00;103412.56;5067486;28;20099;-65
2023/02/11 04:44:09;;;;;;;36.45;11.82;;;;;;;6.64;100.00;103411.84;5069228;28;20028;-63
2023/02/11 04:46:34;;;;;;;37.53;11.45;;;;;;;6.67;100.00;103411.94;5068343;28;20041;-65
2023/02/11 04:49:00;;;;;;;43.95;12.40;;;;;;;6.73;100.00;103409.47;5068902;28;20032;-64
2023/02/11 04:51:25;;;;;;;40.70;11.80;;;;;;;6.77;100.00;103398.19;5068362;28;20115;-63
2023/02/11 04:53:51;;;;;;;40.40;12.02;;;;;;;6.72;100.00;103405.06;5069078;28;20029;-64
2023/02/11 04:56:16;;;;;;;45.30;13.02;;;;;;;6.77;100.00;103398.19;5066790;28;20116;-65
2023/02/11 04:58:41;;;;;;;43.25;12.68;;;;;;;6.76;100.00;103399.06;5067961;28;20020;-66
2023/02/11 05:01:13;;;;;;;37.03;11.30;;;;;;;6.75;100.00;103393.78;5067981;28;20029;-64
2023/02/11 05:03:38;;;;;;;48.58;12.20;;;;;;;6.71;100.00;103398.03;5068186;28;20107;-64
2023/02/11 05:06:04;;;;;;;38.58;12.73;;;;;;;6.73;100.00;103400.69;5063711;28;20471;-63
2023/02/11 05:08:30;;;;;;;46.38;13.52;;;;;;;6.70;100.00;103402.41;5049831;28;20032;-64
2023/02/11 05:10:55;;;;;;;47.10;14.07;;;;;;;6.73;100.00;103404.22;5055318;28;20131;-64
2023/02/11 05:13:20;;;;;;;51.67;12.77;;;;;;;6.68;100.00;103393.63;5067938;28;20490;-62
2023/02/11 05:15:46;;;;;;;46.90;14.25;;;;;;;6.68;100.00;103405.81;5068103;28;20111;-66
2023/02/11 05:18:13;;;;;;;46.58;15.13;;;;;;;6.68;100.00;103408.44;5067876;28;20482;-63
2023/02/11 05:20:39;;;;;;;46.28;14.73;;;;;;;6.66;100.00;103416.31;5067431;28;20060;-63
2023/02/11 05:23:04;;;;;;;51.97;14.70;;;;;;;6.67;100.00;103414.53;5068099;28;20193;-65
2023/02/11 05:25:29;;;;;;;47.40;15.18;;;;;;;6.70;100.00;103422.47;5067270;28;20036;-65
2023/02/11 05:27:55;;;;;;;53.65;15.65;;;;;;;6.64;100.00;103427.56;5066419;28;20024;-64
2023/02/11 05:30:20;;;;;;;49.08;14.65;;;;;;;6.69;100.00;103425.97;5067343;28;20029;-62
2023/02/11 05:32:46;;;;;;;45.65;14.98;;;;;;;6.75;100.00;103431.34;5066144;28;20048;-66
2023/02/11 05:35:11;;;;;;;46.75;14.32;;;;;;;6.79;100.00;103445.41;5068399;28;20037;-66
2023/02/11 05:37:37;;;;;;;50.47;16.27;;;;;;;6.77;100.00;103442.75;5067219;28;20020;-63
2023/02/11 05:40:03;;;;;;;56.33;17.88;;;;;;;6.77;100.00;103429.63;5067740;28;20029;-64
2023/02/11 05:42:28;;;;;;;54.10;16.75;;;;;;;6.80;100.00;103432.34;5068033;28;20096;-64
2023/02/11 05:44:53;;;;;;;56.60;17.25;;;;;;;6.85;100.00;103429.81;5053767;28;20471;-65
2023/02/11 05:47:19;;;;;;;50.72;17.52;;;;;;;6.81;100.00;103426.22;5068340;28;20043;-64
2023/02/11 05:49:44;;;;;;;55.28;17.13;;;;;;;6.83;100.00;103426.28;5066935;28;20037;-65
2023/02/11 05:52:09;;;;;;;57.78;16.63;;;;;;;6.80;100.00;103424.47;5056834;28;20025;-65
2023/02/11 05:54:35;;;;;;;69.03;18.23;;;;;;;6.78;100.00;103426.19;5050242;28;20020;-66
2023/02/11 05:57:00;;;;;;;50.60;17.63;;;;;;;6.78;100.00;103433.16;5066104;28;20661;-62
2023/02/11 05:59:25;;;;;;;51.55;17.90;;;;;;;6.75;100.00;103435.69;5057988;28;20052;-65
2023/02/11 06:01:51;;;;;;;53.80;18.58;;;;;;;6.70;100.00;103423.38;5062818;28;20084;-64
2023/02/11 06:04:16;;;;;;;58.00;18.33;;;;;;;6.74;100.00;103426.06;5067463;28;20033;-64
2023/02/11 06:06:41;;;;;;;58.65;20.15;;;;;;;6.73;100.00;103429.53;5067811;28;20465;-62
2023/02/11 06:09:08;;;;;;;51.40;18.20;;;;;;;6.68;100.00;103425.06;5068017;28;20063;-64
2023/02/11 06:11:34;;;;;;;62.78;19.48;;;;;;;6.70;100.00;103426.00;5067625;28;20029;-62
2023/02/11 06:14:00;;;;;;;55.33;19.00;;;;;;;6.74;100.00;103426.94;5068978;28;20433;-64
2023/02/11 06:16:25;;;;;;;47.97;17.73;;;;;;;6.74;100.00;103423.47;5068447;28;20416;-68
2023/02/11 06:18:50;;;;;;;53.95;18.98;;;;;;;6.79;100.00;103430.56;5071699;28;20032;-63
2023/02/11 06:21:16;;;;;;;67.15;20.42;;;;;;;6.77;100.00;103424.41;5072318;28;20074;-64
2023/02/11 06:23:42;;;;;;;55.53;20.65;;;;;;;6.79;100.00;103427.94;5071659;28;20681;-61
2023/02/11 06:26:18;;;;;;;58.28;20.05;;;;;;;6.82;100.00;103428.03;5051325;28;20487;-64
2023/02/11 06:28:44;;;;;;;53.80;19.45;;;;;;;6.87;100.00;103430.75;5065914;28;20518;-66
2023/02/11 06:31:10;;;;;;;56.85;18.83;;;;;;;6.88;100.00;103427.28;5070048;28;20094;-65
2023/02/11 06:33:36;;;;;;;60.05;20.00;;;;;;;6.96;100.00;103432.72;5071117;28;20028;-65
2023/02/11 06:36:02;;;;;;;55.95;20.60;;;;;;;6.94;100.00;103423.91;5071765;28;20028;-63
2023/02/11 06:38:28;;;;;;;59.60;21.48;;;;;;;6.95;100.00;103430.91;5069410;28;20281;-66
2023/02/11 06:40:53;;;;;;;59.28;20.08;;;;;;;6.98;100.00;103436.22;5070595;28;20531;-63
2023/02/11 06:43:18;;;;;;;57.13;21.05;;;;;;;6.98;100.00;103438.84;5071514;28;20021;-65
2023/02/11 06:45:44;;;;;;;55.50;20.55;;;;;;;7.03;100.00;103444.22;5071069;28;20458;-64
2023/02/11 06:48:09;;;;;;;51.72;20.92;;;;;;;7.03;100.00;103442.47;5070102;28;20371;-63
2023/02/11 06:50:35;;;;;;;58.65;20.08;;;;;;;7.04;100.00;103441.63;5061525;28;20033;-63
2023/02/11 06:53:01;;;;;;;53.90;20.23;;;;;;;7.04;100.00;103435.47;5059470;28;20020;-62
2023/02/11 06:55:26;;;;;;;51.65;21.00;;;;;;;7.03;100.00;103437.25;5058496;28;20546;-66
2023/02/11 06:57:52;;;;;;;55.13;20.02;;;;;;;7.00;100.00;103438.88;5057763;28;20025;-58
2023/02/11 07:00:17;;;;;;;48.83;21.00;;;;;;;7.02;100.00;103443.34;5051047;28;20043;-65
2023/02/11 07:02:43;;;;;;;59.92;20.58;;;;;;;7.04;100.00;103445.97;5050933;28;20100;-67
2023/02/11 07:05:08;;;;;;;58.17;22.40;;;;;;;6.98;100.00;103448.47;5057792;28;20028;-64
2023/02/11 07:07:35;;;;;;;48.60;21.13;;;;;;;7.06;100.00;103447.81;5058774;28;20475;-63
2023/02/11 07:10:03;;;;;;;59.55;22.90;;;;;;;7.09;100.00;103460.09;5058131;28;20443;-60
2023/02/11 07:12:28;;;;;;;54.13;21.52;;;;;;;7.17;100.00;103460.28;5061178;28;20020;-65
2023/02/11 07:14:55;;;;;;;59.03;22.83;;;;;;;7.22;100.00;103455.13;5058515;28;20487;-65
2023/02/11 07:17:20;;;;;;;56.47;23.23;;;;;;;7.24;100.00;103453.41;5057601;28;20447;-64
2023/02/11 07:19:46;;;;;;;51.35;21.85;;;;;;;7.26;100.00;103449.09;5059805;28;20056;-63
2023/02/11 07:22:11;;;;;;;62.72;22.52;;;;;;;7.30;100.00;103453.56;5061206;28;20556;-65
2023/02/11 07:24:36;;;;;;;58.20;22.58;;;;;;;7.28;100.00;103457.88;5057112;28;20422;-63
2023/02/11 07:27:01;;;;;;;55.80;22.73;;;;;;;7.28;100.00;103456.13;5059333;28;20020;-62
2023/02/11 07:29:27;;;;;;;54.50;21.42;;;;;;;7.36;100.00;103455.41;5056173;28;20029;-65
2023/02/11 07:31:52;;;;;;;47.30;21.58;;;;;;;7.44;100.00;103462.59;5060536;28;20111;-63
2023/02/11 07:34:18;;;;;;;51.00;21.67;;;;;;;7.39;100.00;103463.34;5058873;28;20364;-63
2023/02/11 07:36:43;;;;;;;56.58;23.90;;;;;;;7.44;100.00;103461.72;5059457;28;20013;-63
2023/02/11 07:39:12;;;;;;;48.42;22.30;;;;;;;7.41;100.00;103469.53;5059301;28;20090;-64
2023/02/11 07:41:37;;;;;;;48.60;22.25;;;;;;;7.49;100.00;103480.19;5058677;28;20027;-62
2023/02/11 07:44:03;;;;;;;52.53;22.70;;;;;;;7.55;100.00;103475.97;5058603;28;20021;-65
2023/02/11 07:46:28;;;;;;;43.83;21.30;;;;;;;7.50;100.00;103471.47;5057395;28;20033;-60
2023/02/11 07:48:54;;;;;;;49.22;23.20;;;;;;;7.61;100.00;103472.56;5059501;28;20012;-65
2023/02/11 07:51:20;;;;;;;46.30;20.73;;;;;;;7.57;100.00;103471.63;5066568;28;20140;-63
2023/02/11 07:53:46;;;;;;;47.40;21.10;;;;;;;7.56;100.00;103475.09;5058323;28;20025;-63
2023/02/11 07:56:13;;;;;;;45.25;22.23;;;;;;;7.74;100.00;103464.97;5049839;28;20044;-60
2023/02/11 07:58:40;;;;;;;43.05;20.50;;;;;;;7.76;100.00;103474.63;5048878;28;20025;-64
2023/02/11 08:01:08;;;;;;;48.72;22.23;;;;;;;7.81;100.00;103480.88;5049094;28;20037;-65
2023/02/11 08:03:34;;;;;;;46.55;21.30;;;;;;;7.90;100.00;103476.66;5048720;28;20049;-64
2023/02/11 08:06:05;;;;;;;53.88;21.73;;;;;;;7.92;100.00;103478.44;5049269;28;20118;-62
2023/02/11 08:08:30;;;;;;;45.42;22.20;;;;;;;7.99;100.00;103476.84;5050268;28;20017;-65
2023/02/11 08:10:55;;;;;;;46.50;22.10;;;;;;;8.07;100.00;103480.50;5047217;28;20035;-66
2023/02/11 08:13:21;;;;;;;44.08;21.27;;;;;;;8.08;100.00;103484.00;5047738;28;20028;-66
2023/02/11 08:15:46;;;;;;;52.83;21.77;;;;;;;8.12;100.00;103483.22;5047208;28;20078;-65
2023/02/11 08:18:11;;;;;;;47.45;21.65;;;;;;;8.14;100.00;103480.59;5046084;28;20497;-63
2023/02/11 08:20:37;;;;;;;49.28;22.27;;;;;;;8.22;100.00;103486.91;5049212;28;20378;-63
2023/02/11 08:23:05;;;;;;;47.65;22.25;;;;;;;8.25;100.00;103493.94;5048814;28;20490;-67
2023/02/11 08:25:31;;;;;;;42.65;20.85;;;;;;;8.29;100.00;103494.03;5048389;28;20104;-65
2023/02/11 08:27:57;;;;;;;51.25;21.88;;;;;;;8.36;100.00;103496.78;5043635;28;20475;-63
2023/02/11 08:30:22;;;;;;;45.38;21.98;;;;;;;8.43;100.00;103494.28;5068037;28;20092;-59
2023/02/11 08:32:48;;;;;;;40.35;20.95;;;;;;;8.54;100.00;103507.66;5060414;28;20498;-61
2023/02/11 08:35:13;;;;;;;38.97;20.30;;;;;;;8.56;100.00;103513.84;5048460;28;20032;-66
2023/02/11 08:37:39;;;;;;;45.45;20.40;;;;;;;8.59;100.00;103516.50;5048644;28;20044;-64
2023/02/11 08:40:04;;;;;;;41.90;20.55;;;;;;;8.67;100.00;103511.38;5047505;28;20438;-66
2023/02/11 08:42:30;;;;;;;42.90;19.95;;;;;;;8.75;100.00;103519.38;5048849;28;20056;-65
2023/02/11 08:44:55;;;;;;;43.60;20.80;;;;;;;8.75;100.00;103516.75;5058360;28;20021;-65
2023/02/11 08:47:20;;;;;;;39.08;20.38;;;;;;;8.82;100.00;103521.25;5055573;28;20371;-63
2023/02/11 08:49:46;;;;;;;43.00;21.02;;;;;;;8.84;100.00;103521.28;5058788;28;20032;-63
2023/02/11 08:52:11;;;;;;;39.03;19.38;;;;;;;8.83;100.00;103520.41;5056386;28;20028;-65
2023/02/11 08:54:37;;;;;;;42.85;20.52;;;;;;;8.91;100.00;103522.28;5056307;28;20382;-63
2023/02/11 08:57:02;;;;;;;39.67;19.70;;;;;;;8.97;100.00;103525.88;5055582;28;20475;-66
2023/02/11 08:59:28;;;;;;;41.17;19.55;;;;;;;9.01;100.00;103526.84;5047282;28;20025;-64
2023/02/11 09:01:53;;;;;;;40.35;20.23;;;;;;;9.10;100.00;103519.06;5054539;28;20429;-66
2023/02/11 09:04:19;;;;;;;38.83;19.17;;;;;;;9.13;100.00;103528.78;5059982;28;20021;-63
2023/02/11 09:06:44;;;;;;;37.17;18.33;;;;;;;9.17;100.00;103524.44;5066483;28;20034;-62
2023/02/11 09:09:12;;;;;;;34.65;18.23;;;;;;;9.22;100.00;103528.03;5066497;28;20454;-63
2023/02/11 09:11:39;;;;;;;34.88;18.38;;;;;;;9.24;100.00;103526.28;5066893;28;20590;-63
2023/02/11 09:14:05;;;;;;;34.97;18.45;;;;;;;9.25;100.00;103532.44;5066186;28;20021;-64
2023/02/11 09:16:32;;;;;;;40.13;17.98;;;;;;;9.39;100.00;103537.94;5065168;28;20509;-64
2023/02/11 09:18:59;;;;;;;35.58;17.60;;;;;;;9.43;100.00;103542.38;5067730;28;20565;-66
2023/02/11 09:21:25;;;;;;;32.17;17.35;;;;;;;9.48;100.00;103548.56;5066793;28;20451;-57
2023/02/11 09:23:50;;;;;;;31.05;18.00;;;;;;;9.53;100.00;103540.72;5067754;28;20070;-62
2023/02/11 09:26:26;;;;;;;33.17;17.77;;;;;;;9.60;100.00;103538.22;5067945;28;20105;-65
2023/02/11 09:28:51;;;;;;;34.97;17.55;;;;;;;9.64;100.00;103541.78;5067223;28;20051;-60
2023/02/11 09:31:19;;;;;;;32.83;17.23;;;;;;;9.69;100.00;103544.50;5059249;28;20368;-62
2023/02/11 09:33:47;;;;;;;32.53;17.08;;;;;;;9.76;100.00;103546.34;5058512;28;20429;-63
2023/02/11 09:36:22;;;;;;;28.52;16.45;;;;;;;9.79;100.00;103543.75;5046759;28;20162;-63
2023/02/11 09:38:47;;;;;;;35.28;17.98;;;;;;;9.82;100.00;103551.66;5048019;28;20367;-63
2023/02/11 09:41:22;;;;;;;30.67;14.60;;;;;;;9.83;100.00;103553.44;5059040;28;20019;-67
2023/02/11 09:43:48;;;;;;;29.20;14.18;;;;;;;9.85;100.00;103549.06;5063768;28;20116;-65
2023/02/11 09:46:15;;;;;;;21.42;13.40;;;;;;;9.94;100.00;103552.69;5046792;28;20041;-64
2023/02/11 09:48:43;;;;;;;20.70;12.52;;;;;;;9.91;100.00;103547.38;5043843;28;20603;-63
2023/02/11 09:51:33;;;;;;;31.70;12.48;;;;;;;9.96;100.00;103549.19;5046227;28;20387;-66
2023/02/11 09:54:02;;;;;;;22.20;11.45;;;;;;;10.01;100.00;103546.63;5050808;28;20032;-63
2023/02/11 09:56:28;;;;;;;18.55;9.95;;;;;;;9.96;100.00;103541.31;5065815;28;20108;-67
2023/02/11 09:58:53;;;;;;;17.67;10.27;;;;;;;9.92;100.00;103552.66;5066988;28;20115;-66
2023/02/11 10:01:42;;;;;;;17.60;9.73;;;;;;;10.10;100.00;103546.75;5062145;28;20025;-64
2023/02/11 10:04:19;;;;;;;16.63;8.57;;;;;;;10.22;100.00;103556.53;5059721;28;20035;-64
2023/02/11 10:06:48;;;;;;;16.90;9.52;;;;;;;10.32;100.00;103564.53;5066744;28;20032;-65
2023/02/11 10:09:38;;;;;;;19.13;9.10;;;;;;;10.44;100.00;103566.41;5063439;28;20029;-61
2023/02/11 10:12:22;;;;;;;17.48;8.68;;;;;;;10.57;100.00;103562.22;5066949;28;20036;-65
2023/02/11 10:14:47;;;;;;;17.95;8.02;;;;;;;10.57;100.00;103573.63;5066511;28;20025;-64
2023/02/11 10:17:31;;;;;;;13.30;7.25;;;;;;;10.60;100.00;103578.91;5060327;28;20035;-60
2023/02/11 10:20:12;;;;;;;17.58;8.10;;;;;;;10.68;100.00;103578.09;5045305;28;20025;-65
2023/02/11 10:22:43;;;;;;;14.80;7.65;;;;;;;10.63;100.00;103588.63;5053617;28;20029;-64
2023/02/11 10:25:34;;;;;;;13.90;7.63;;;;;;;10.57;100.00;103601.75;5064391;28;20475;-65
2023/02/11 10:28:00;;;;;;;11.85;7.70;;;;;;;10.70;100.00;103587.81;5055396;28;20045;-62
2023/02/11 10:30:31;;;;;;;11.65;7.28;;;;;;;10.82;100.00;103591.44;5045867;28;20029;-60
2023/02/11 10:33:10;;;;;;;10.50;6.65;;;;;;;10.79;100.00;103594.94;5042943;28;20021;-62
2023/02/11 10:35:36;;;;;;;7.60;5.82;;;;;;;10.89;100.00;103597.69;5044508;28;20032;-66
2023/02/11 10:38:02;;;;;;;10.93;6.70;;;;;;;10.97;100.00;103598.63;5046341;28;20029;-62
2023/02/11 10:40:28;;;;;;;13.23;7.13;;;;;;;11.07;100.00;103595.19;5044705;28;20017;-62
2023/02/11 10:42:58;;;;;;;13.70;7.22;;;;;;;11.02;100.00;103602.19;5063015;28;20021;-67
2023/02/11 10:45:32;;;;;;;11.18;7.00;;;;;;;11.07;100.00;103605.75;5063845;28;20463;-66
2023/02/11 10:47:58;;;;;;;13.02;7.63;;;;;;;11.01;100.00;103612.72;5066716;28;20065;-66
2023/02/11 10:50:35;;;;;;;10.82;6.95;;;;;;;11.15;100.00;103613.72;5061617;28;20116;-60
2023/02/11 10:53:11;;;;;;;10.93;6.93;;;;;;;11.26;100.00;103624.38;5054788;28;20020;-67
2023/02/11 10:55:37;;;;;;;10.23;6.63;;;;;;;11.26;100.00;103621.75;5058045;28;20043;-64
2023/02/11 10:58:03;;;;;;;15.77;7.45;;;;;;;11.29;100.00;103632.28;5055731;28;20037;-62
2023/02/11 11:00:37;;;;;;;11.48;7.00;;;;;;;11.33;100.00;103631.47;5064805;28;20020;-61
2023/02/11 11:03:20;;;;;;;11.63;6.70;;;;;;;11.31;100.00;103629.66;5059429;28;20028;-67
2023/02/11 11:05:49;;;;;;;11.70;7.38;;;;;;;11.22;100.00;103636.66;5067557;28;20028;-60
2023/02/11 11:08:16;;;;;;;13.20;7.05;;;;;;;11.15;100.00;103636.56;5068174;28;20028;-62
2023/02/11 11:10:44;;;;;;;13.02;7.43;;;;;;;11.02;100.00;103632.97;5069080;28;20636;-63
2023/02/11 11:13:26;;;;;;;9.02;6.93;;;;;;;11.07;100.00;103637.41;5069699;28;20019;-63
2023/02/11 11:16:15;;;;;;;9.52;7.05;;;;;;;11.08;100.00;103628.59;5067824;28;20035;-59
2023/02/11 11:18:43;;;;;;;10.07;7.38;;;;;;;11.08;100.00;103628.59;5067835;28;20032;-62
2023/02/11 11:21:24;;;;;;;13.18;7.30;;;;;;;11.07;100.00;103642.69;5066763;28;20092;-63
2023/02/11 11:23:55;;;;;;;12.35;7.43;;;;;;;10.95;100.00;103639.91;5066276;28;20032;-64
2023/02/11 11:26:22;;;;;;;12.35;7.57;;;;;;;10.84;100.00;103647.75;5067475;28;20028;-64